createdAt,value
2022-09-02T00:01:27.513Z,11.80
2022-09-02T00:04:21.820Z,11.78
2022-09-02T00:07:11.280Z,11.72
2022-09-02T00:10:00.653Z,11.69
2022-09-02T00:12:49.867Z,11.64
2022-09-02T00:15:39.515Z,11.60
2022-09-02T00:18:30.629Z,11.55
2022-09-02T00:21:23.777Z,11.53
2022-09-02T00:24:13.030Z,11.51
2022-09-02T00:27:03.017Z,11.50
2022-09-02T00:29:52.488Z,11.47
2022-09-02T00:32:42.429Z,11.44
2022-09-02T00:35:33.558Z,11.41
2022-09-02T00:38:23.065Z,11.36
2022-09-02T00:41:14.465Z,11.32
2022-09-02T00:44:09.099Z,11.28
2022-09-02T00:46:58.273Z,11.23
2022-09-02T00:49:53.792Z,11.21
2022-09-02T00:52:53.577Z,11.15
2022-09-02T00:55:47.716Z,11.14
2022-09-02T00:58:40.046Z,11.11
2022-09-02T01:01:29.659Z,11.09
2022-09-02T01:04:19.203Z,11.06
2022-09-02T01:07:09.629Z,11.03
2022-09-02T01:10:01.264Z,10.98
2022-09-02T01:12:51.039Z,10.95
2022-09-02T01:15:44.562Z,10.93
2022-09-02T01:18:36.675Z,10.90
2022-09-02T01:21:25.950Z,10.86
2022-09-02T01:24:18.558Z,10.83
2022-09-02T01:27:07.822Z,10.81
2022-09-02T01:30:01.575Z,10.79
2022-09-02T01:32:51.544Z,10.77
2022-09-02T01:35:41.384Z,10.73
2022-09-02T01:38:31.788Z,10.71
2022-09-02T01:41:22.463Z,10.68
2022-09-02T01:44:12.257Z,10.65
2022-09-02T01:47:01.667Z,10.62
2022-09-02T01:49:52.142Z,10.59
2022-09-02T01:52:41.458Z,10.56
2022-09-02T01:55:31.347Z,10.54
2022-09-02T01:58:22.457Z,10.51
2022-09-02T02:01:12.508Z,10.50
2022-09-02T02:04:04.207Z,10.49
2022-09-02T02:06:53.931Z,10.45
2022-09-02T02:09:44.794Z,10.42
2022-09-02T02:12:33.918Z,10.39
2022-09-02T02:18:13.992Z,10.33
2022-09-02T02:21:03.293Z,10.33
2022-09-02T02:23:53.173Z,10.28
2022-09-02T02:26:42.521Z,10.28
2022-09-02T02:29:31.714Z,10.25
2022-09-02T02:32:22.272Z,10.22
2022-09-02T02:35:12.397Z,10.22
2022-09-02T02:38:03.702Z,10.19
2022-09-02T02:40:56.622Z,10.16
2022-09-02T02:43:47.417Z,10.11
2022-09-02T02:46:36.739Z,10.10
2022-09-02T02:49:27.639Z,10.08
2022-09-02T02:52:16.848Z,10.06
2022-09-02T02:55:07.645Z,10.03
2022-09-02T02:57:59.702Z,9.99
2022-09-02T03:00:50.100Z,9.94
2022-09-02T03:03:39.499Z,9.93
2022-09-02T03:06:30.484Z,9.90
2022-09-02T03:09:20.498Z,9.85
2022-09-02T03:12:09.870Z,9.83
2022-09-02T03:14:59.063Z,9.78
2022-09-02T03:17:49.823Z,9.77
2022-09-02T03:20:40.558Z,9.74
2022-09-02T03:23:31.032Z,9.72
2022-09-02T03:26:24.562Z,9.68
2022-09-02T03:29:13.792Z,9.66
2022-09-02T03:32:03.138Z,9.67
2022-09-02T03:34:52.583Z,9.65
2022-09-02T03:37:42.262Z,9.62
2022-09-02T03:40:32.875Z,9.63
2022-09-02T03:43:22.264Z,9.59
2022-09-02T03:46:11.659Z,9.59
2022-09-02T03:49:01.114Z,9.57
2022-09-02T03:51:50.370Z,9.57
2022-09-02T03:54:39.714Z,9.55
2022-09-02T03:57:30.360Z,9.53
2022-09-02T04:00:25.190Z,9.51
2022-09-02T04:03:14.444Z,9.46
2022-09-02T04:06:03.675Z,9.45
2022-09-02T04:08:53.076Z,9.42
2022-09-02T04:11:43.289Z,9.38
2022-09-02T04:14:34.070Z,9.34
2022-09-02T04:18:37.247Z,9.31
2022-09-02T04:21:27.878Z,9.29
2022-09-02T04:24:17.050Z,9.26
2022-09-02T04:27:06.462Z,9.23
2022-09-02T04:29:57.390Z,9.23
2022-09-02T04:32:46.790Z,9.21
2022-09-02T04:35:40.526Z,9.19
2022-09-02T04:38:29.695Z,9.18
2022-09-02T04:41:22.929Z,9.18
2022-09-02T04:44:12.131Z,9.16
2022-09-02T04:47:02.796Z,9.16
2022-09-02T04:49:52.867Z,9.16
2022-09-02T04:52:42.424Z,9.14
2022-09-02T04:55:32.655Z,9.13
2022-09-02T04:58:21.976Z,9.13
2022-09-02T05:01:15.308Z,9.10
2022-09-02T05:04:09.894Z,9.10
2022-09-02T05:07:01.507Z,9.10
2022-09-02T05:09:51.397Z,9.11
2022-09-02T05:12:41.915Z,9.13
2022-09-02T05:15:31.767Z,9.16
2022-09-02T05:18:21.054Z,9.15
2022-09-02T05:21:12.148Z,9.18
2022-09-02T05:24:01.513Z,9.27
2022-09-02T05:26:51.092Z,9.32
2022-09-02T05:29:43.966Z,9.38
2022-09-02T05:32:37.742Z,9.37
2022-09-02T05:35:27.353Z,9.41
2022-09-02T05:38:18.241Z,9.48
2022-09-02T05:41:08.498Z,9.51
2022-09-02T05:44:03.641Z,9.54
2022-09-02T05:46:53.840Z,9.62
2022-09-02T05:49:43.055Z,9.68
2022-09-02T05:52:32.398Z,9.78
2022-09-02T05:55:22.859Z,9.85
2022-09-02T05:58:12.223Z,9.90
2022-09-02T06:01:01.342Z,9.93
2022-09-02T06:03:52.891Z,10.01
2022-09-02T06:06:42.394Z,10.07
2022-09-02T06:09:31.677Z,10.22
2022-09-02T06:12:25.261Z,10.33
2022-09-02T06:15:14.950Z,10.48
2022-09-02T06:18:04.170Z,10.62
2022-09-02T06:20:54.825Z,10.78
2022-09-02T06:23:46.026Z,10.88
2022-09-02T06:26:35.782Z,11.00
2022-09-02T06:29:27.915Z,11.14
2022-09-02T06:32:17.059Z,11.28
2022-09-02T06:35:08.886Z,11.43
2022-09-02T06:38:01.091Z,11.67
2022-09-02T06:40:54.627Z,11.79
2022-09-02T06:43:44.498Z,12.01
2022-09-02T06:46:39.982Z,12.11
2022-09-02T06:49:29.848Z,12.35
2022-09-02T06:52:18.973Z,12.47
2022-09-02T06:55:10.651Z,12.52
2022-09-02T06:57:59.893Z,12.63
2022-09-02T07:00:49.306Z,12.75
2022-09-02T07:03:57.648Z,12.85
2022-09-02T07:06:50.040Z,13.06
2022-09-02T07:09:40.347Z,13.24
2022-09-02T07:12:29.476Z,13.39
2022-09-02T07:15:19.210Z,13.52
2022-09-02T07:18:08.491Z,13.71
2022-09-02T07:20:59.070Z,13.84
2022-09-02T07:23:48.470Z,13.97
2022-09-02T07:26:38.346Z,14.16
2022-09-02T07:29:27.882Z,14.42
2022-09-02T07:32:17.647Z,14.60
2022-09-02T07:35:09.288Z,14.74
2022-09-02T07:37:59.908Z,14.91
2022-09-02T07:40:50.704Z,15.06
2022-09-02T07:43:49.671Z,15.31
2022-09-02T07:46:41.319Z,15.54
2022-09-02T07:50:15.491Z,15.92
2022-09-02T07:52:43.328Z,16.12
2022-09-02T07:55:37.362Z,16.38
2022-09-02T07:58:27.764Z,16.68
2022-09-02T08:01:23.459Z,16.88
2022-09-02T08:04:14.085Z,17.12
2022-09-02T08:07:03.308Z,17.28
2022-09-02T08:09:52.746Z,17.54
2022-09-02T08:12:46.466Z,17.82
2022-09-02T08:15:37.416Z,18.07
2022-09-02T08:18:26.968Z,18.27
2022-09-02T08:21:16.163Z,18.56
2022-09-02T08:24:05.801Z,18.86
2022-09-02T08:26:54.957Z,19.17
2022-09-02T08:29:45.410Z,19.41
2022-09-02T08:32:34.878Z,19.66
2022-09-02T08:35:24.062Z,19.92
2022-09-02T08:38:13.303Z,20.16
2022-09-02T08:41:02.884Z,20.38
2022-09-02T08:43:56.369Z,20.50
2022-09-02T08:46:48.090Z,20.79
2022-09-02T08:49:44.740Z,21.03
2022-09-02T08:52:42.569Z,21.28
2022-09-02T08:55:44.235Z,21.48
2022-09-02T08:58:41.746Z,21.75
2022-09-02T09:01:46.292Z,22.03
2022-09-02T09:05:07.324Z,22.24
2022-09-02T09:08:13.927Z,22.49
2022-09-02T09:11:10.714Z,22.82
2022-09-02T09:14:28.399Z,23.10
2022-09-02T09:17:30.141Z,23.40
2022-09-02T09:20:27.334Z,23.75
2022-09-02T09:23:33.986Z,23.99
2022-09-02T09:26:30.250Z,24.22
2022-09-02T09:29:19.444Z,24.36
2022-09-02T09:32:28.886Z,24.52
2022-09-02T09:35:20.651Z,24.64
2022-09-02T09:38:15.467Z,24.79
2022-09-02T09:41:20.583Z,24.88
2022-09-02T09:44:09.769Z,25.08
2022-09-02T09:47:03.299Z,25.39
2022-09-02T09:49:54.240Z,25.57
2022-09-02T09:52:45.339Z,25.54
2022-09-02T09:55:39.372Z,25.48
2022-09-02T09:58:35.267Z,25.49
2022-09-02T10:01:29.460Z,25.65
2022-09-02T10:04:46.249Z,25.69
2022-09-02T10:07:39.729Z,25.84
2022-09-02T10:10:33.121Z,25.90
2022-09-02T10:13:27.882Z,25.95
2022-09-02T10:16:32.145Z,26.22
2022-09-02T10:19:34.238Z,26.19
2022-09-02T10:22:59.382Z,26.20
2022-09-02T10:26:05.390Z,26.30
2022-09-02T10:29:33.518Z,26.24
2022-09-02T10:32:41.036Z,26.24
2022-09-02T10:35:42.463Z,26.55
2022-09-02T10:38:43.618Z,26.51
2022-09-02T10:44:55.588Z,26.30
2022-09-02T10:48:02.139Z,26.87
2022-09-02T10:50:59.714Z,27.14
2022-09-02T10:54:09.688Z,27.23
2022-09-02T10:57:09.149Z,27.16
2022-09-02T11:00:06.847Z,27.23
2022-09-02T11:03:08.216Z,27.64
2022-09-02T11:06:06.064Z,27.79
2022-09-02T11:09:00.318Z,27.88
2022-09-02T11:12:00.515Z,28.19
2022-09-02T11:15:06.007Z,28.09
2022-09-02T11:21:14.593Z,28.19
2022-09-02T11:24:11.029Z,28.22
2022-09-02T11:27:25.974Z,28.13
2022-09-02T11:30:26.635Z,28.24
2022-09-02T11:33:24.419Z,28.58
2022-09-02T11:36:14.417Z,28.23
2022-09-02T11:39:11.706Z,28.62
2022-09-02T11:42:27.564Z,29.03
2022-09-02T11:45:59.420Z,29.40
2022-09-02T11:49:31.923Z,29.72
2022-09-02T11:52:40.241Z,29.98
2022-09-02T11:55:36.949Z,30.59
2022-09-02T11:58:38.934Z,31.02
2022-09-02T12:01:34.793Z,31.16
2022-09-02T12:07:48.870Z,31.50
2022-09-02T12:11:04.325Z,30.95
2022-09-02T12:13:55.842Z,30.98
2022-09-02T12:17:03.631Z,31.08
2022-09-02T12:19:52.736Z,31.27
2022-09-02T12:22:42.579Z,30.60
2022-09-02T12:25:49.496Z,30.88
2022-09-02T12:28:40.073Z,31.44
2022-09-02T12:31:43.221Z,31.86
2022-09-02T12:34:57.342Z,31.69
2022-09-02T12:37:57.596Z,31.73
2022-09-02T12:41:01.255Z,31.62
2022-09-02T12:44:25.336Z,31.09
2022-09-02T12:47:32.924Z,31.14
2022-09-02T12:50:32.289Z,31.56
2022-09-02T12:53:38.696Z,31.57
2022-09-02T12:56:30.746Z,32.00
2022-09-02T12:59:31.405Z,32.00
2022-09-02T13:02:50.910Z,31.91
2022-09-02T13:05:56.985Z,32.12
2022-09-02T13:13:03.803Z,31.40
2022-09-02T13:16:18.701Z,31.68
2022-09-02T13:19:46.166Z,32.14
2022-09-02T13:23:05.642Z,32.61
2022-09-02T13:26:48.447Z,32.67
2022-09-02T13:30:08.495Z,32.21
2022-09-02T13:33:03.489Z,32.01
2022-09-02T13:35:59.061Z,31.93
2022-09-02T13:38:49.658Z,31.79
2022-09-02T13:41:38.959Z,31.98
2022-09-02T13:44:30.085Z,32.21
2022-09-02T13:47:21.040Z,32.34
2022-09-02T13:50:13.105Z,32.20
2022-09-02T13:56:18.544Z,31.09
2022-09-02T13:59:07.720Z,30.70
2022-09-02T14:01:57.093Z,30.27
2022-09-02T14:04:47.117Z,30.52
2022-09-02T14:07:42.299Z,30.93
2022-09-02T14:10:34.270Z,31.16
2022-09-02T14:13:25.275Z,31.03
2022-09-02T14:16:34.274Z,30.64
2022-09-02T14:19:27.133Z,30.71
2022-09-02T14:22:29.347Z,30.42
2022-09-02T14:25:22.243Z,30.46
2022-09-02T14:28:25.152Z,30.67
2022-09-02T14:31:30.536Z,30.50
2022-09-02T14:34:37.550Z,30.43
2022-09-02T14:37:29.106Z,30.24
2022-09-02T14:40:19.696Z,29.58
2022-09-02T14:43:15.288Z,29.49
2022-09-02T14:46:25.450Z,29.80
2022-09-02T14:49:25.556Z,30.02
2022-09-02T14:52:21.228Z,30.05
2022-09-02T14:55:52.514Z,29.46
2022-09-02T14:58:41.849Z,28.72
2022-09-02T15:01:32.479Z,28.93
2022-09-02T15:04:22.055Z,29.16
2022-09-02T15:07:11.209Z,29.27
2022-09-02T15:10:00.778Z,29.50
2022-09-02T15:12:53.446Z,29.18
2022-09-02T15:15:42.927Z,29.20
2022-09-02T15:18:33.482Z,29.47
2022-09-02T15:21:22.742Z,29.38
2022-09-02T15:24:11.934Z,29.43
2022-09-02T15:27:01.386Z,29.63
2022-09-02T15:29:50.594Z,29.77
2022-09-02T15:32:40.064Z,29.76
2022-09-02T15:35:32.434Z,29.64
2022-09-02T15:38:21.921Z,29.71
2022-09-02T15:41:13.792Z,29.60
2022-09-02T15:44:03.071Z,29.91
2022-09-02T15:46:52.551Z,30.12
2022-09-02T15:49:41.649Z,30.05
2022-09-02T15:52:32.178Z,29.98
2022-09-02T15:55:25.011Z,29.86
2022-09-02T15:58:18.507Z,29.36
2022-09-02T16:01:09.178Z,29.05
2022-09-02T16:04:00.446Z,29.04
2022-09-02T16:06:52.281Z,28.54
2022-09-02T16:09:42.789Z,28.46
2022-09-02T16:12:32.962Z,28.27
2022-09-02T16:15:22.077Z,27.99
2022-09-02T16:18:12.149Z,27.66
2022-09-02T16:21:02.204Z,27.46
2022-09-02T16:23:51.463Z,27.27
2022-09-02T16:26:43.350Z,27.03
2022-09-02T16:29:33.023Z,26.97
2022-09-02T16:32:27.342Z,26.99
2022-09-02T16:35:17.249Z,26.85
2022-09-02T16:38:06.299Z,26.53
2022-09-02T16:40:57.699Z,26.12
2022-09-02T16:43:48.217Z,26.01
2022-09-02T16:46:40.746Z,25.89
2022-09-02T16:49:29.889Z,25.78
2022-09-02T16:52:21.400Z,25.62
2022-09-02T16:55:10.827Z,25.60
2022-09-02T16:58:01.697Z,25.62
2022-09-02T17:00:52.234Z,25.51
2022-09-02T17:03:42.785Z,25.38
2022-09-02T17:06:33.060Z,25.37
2022-09-02T17:09:22.283Z,25.20
2022-09-02T17:12:11.426Z,24.89
2022-09-02T17:15:00.610Z,24.82
2022-09-02T17:17:54.131Z,24.72
2022-09-02T17:20:43.292Z,24.54
2022-09-02T17:23:32.640Z,24.24
2022-09-02T17:26:25.885Z,23.98
2022-09-02T17:29:46.944Z,23.75
2022-09-02T17:32:27.707Z,23.71
2022-09-02T17:35:18.909Z,23.59
2022-09-02T17:38:08.113Z,23.48
2022-09-02T17:41:14.865Z,23.29
2022-09-02T17:44:04.780Z,23.08
2022-09-02T17:46:55.742Z,22.89
2022-09-02T17:49:45.252Z,22.67
2022-09-02T17:52:35.720Z,22.45
2022-09-02T17:55:24.985Z,22.26
2022-09-02T17:58:22.453Z,22.10
2022-09-02T18:01:17.067Z,21.89
2022-09-02T18:04:27.442Z,21.70
2022-09-02T18:07:33.661Z,21.55
2022-09-02T18:10:24.783Z,21.35
2022-09-02T18:13:19.859Z,21.18
2022-09-02T18:16:25.773Z,20.97
2022-09-02T18:19:36.937Z,20.78
2022-09-02T18:23:01.628Z,20.63
2022-09-02T18:26:07.144Z,20.48
2022-09-02T18:29:12.122Z,20.32
2022-09-02T18:32:14.470Z,20.20
2022-09-02T18:35:26.930Z,20.06
2022-09-02T18:38:28.527Z,19.90
2022-09-02T18:41:42.228Z,19.77
2022-09-02T18:44:42.899Z,19.62
2022-09-02T18:47:41.715Z,19.48
2022-09-02T18:50:49.619Z,19.38
2022-09-02T18:53:46.721Z,19.27
2022-09-02T18:56:38.830Z,19.19
2022-09-02T18:59:35.336Z,19.12
2022-09-02T19:02:36.661Z,19.03
2022-09-02T19:05:28.462Z,18.95
2022-09-02T19:08:34.369Z,18.85
2022-09-02T19:11:25.747Z,18.75
2022-09-02T19:14:27.308Z,18.65
2022-09-02T19:17:17.240Z,18.57
2022-09-02T19:20:14.660Z,18.46
2022-09-02T19:23:08.319Z,18.36
2022-09-02T19:25:59.282Z,18.26
2022-09-02T19:28:49.730Z,18.20
2022-09-02T19:31:43.480Z,18.12
2022-09-02T19:34:38.416Z,18.02
2022-09-02T19:37:29.251Z,17.94
2022-09-02T19:40:24.216Z,17.84
2022-09-02T19:43:16.006Z,17.74
2022-09-02T19:46:06.443Z,17.64
2022-09-02T19:48:57.008Z,17.54
2022-09-02T19:51:47.262Z,17.49
2022-09-02T19:54:36.587Z,17.41
2022-09-02T19:57:26.469Z,17.31
2022-09-02T20:00:17.226Z,17.21
2022-09-02T20:03:06.494Z,17.12
2022-09-02T20:05:57.249Z,17.03
2022-09-02T20:08:46.753Z,16.94
2022-09-02T20:11:37.215Z,16.84
2022-09-02T20:14:30.381Z,16.73
2022-09-02T20:17:23.180Z,16.62
2022-09-02T20:20:20.001Z,16.52
2022-09-02T20:23:15.061Z,16.44
2022-09-02T20:26:29.323Z,16.32
2022-09-02T20:30:00.843Z,16.22
2022-09-02T20:33:00.430Z,16.14
2022-09-02T20:36:09.690Z,16.07
2022-09-02T20:39:28.711Z,16.00
2022-09-02T20:42:50.361Z,15.95
2022-09-02T20:45:45.796Z,15.89
2022-09-02T20:49:00.187Z,15.80
2022-09-02T20:52:00.787Z,15.71
2022-09-02T20:55:03.164Z,15.64
2022-09-02T20:58:19.503Z,15.56
2022-09-02T21:01:13.177Z,15.51
2022-09-02T21:04:28.239Z,15.41
2022-09-02T21:07:25.396Z,15.33
2022-09-02T21:10:23.262Z,15.27
2022-09-02T21:13:22.624Z,15.21
2022-09-02T21:16:19.933Z,15.13
2022-09-02T21:19:18.475Z,15.06
2022-09-02T21:22:19.126Z,14.98
2022-09-02T21:25:16.551Z,14.91
2022-09-02T21:28:17.462Z,14.85
2022-09-02T21:31:19.027Z,14.78
2022-09-02T21:34:17.672Z,14.70
2022-09-02T21:37:10.029Z,14.66
2022-09-02T21:40:06.869Z,14.56
2022-09-02T21:43:22.411Z,14.50
2022-09-02T21:46:25.605Z,14.44
2022-09-02T21:49:38.356Z,14.36
2022-09-02T21:52:44.633Z,14.30
2022-09-02T21:56:02.577Z,14.25
2022-09-02T21:59:52.182Z,14.17
2022-09-02T22:02:55.821Z,14.11
2022-09-02T22:05:55.814Z,14.04
2022-09-02T22:08:58.473Z,13.98
2022-09-02T22:11:59.474Z,13.91
2022-09-02T22:15:04.092Z,13.85
2022-09-02T22:17:59.712Z,13.78
2022-09-02T22:20:59.391Z,13.74
2022-09-02T22:23:49.196Z,13.67
2022-09-02T22:26:46.807Z,13.61
2022-09-02T22:29:46.654Z,13.56
2022-09-02T22:32:44.362Z,13.52
2022-09-02T22:35:42.928Z,13.48
2022-09-02T22:38:41.953Z,13.42
2022-09-02T22:41:56.089Z,13.37
2022-09-02T22:45:11.243Z,13.35
2022-09-02T22:48:28.326Z,13.29
2022-09-02T22:51:44.627Z,13.25
2022-09-02T22:54:33.878Z,13.21
2022-09-02T22:57:39.937Z,13.19
2022-09-02T23:00:35.857Z,13.16
2022-09-02T23:03:38.824Z,13.13
2022-09-02T23:06:30.473Z,13.09
2022-09-02T23:09:19.627Z,13.07
2022-09-02T23:12:28.668Z,13.05
2022-09-02T23:15:32.922Z,13.03
2022-09-02T23:18:37.799Z,13.01
2022-09-02T23:21:40.069Z,12.99
2022-09-02T23:24:45.287Z,12.95
2022-09-02T23:27:45.020Z,12.94
2022-09-02T23:30:36.573Z,12.92
2022-09-02T23:33:49.171Z,12.89
2022-09-02T23:36:51.320Z,12.86
2022-09-02T23:40:00.862Z,12.82
2022-09-02T23:42:51.354Z,12.79
2022-09-02T23:45:40.745Z,12.75
2022-09-02T23:48:47.147Z,12.72
2022-09-02T23:51:51.164Z,12.68
2022-09-02T23:55:09.085Z,12.65
2022-09-02T23:58:32.302Z,12.61
